sensor_id;sensor_type;location;lat;lon;timestamp;P1;durP1;ratioP1;P2;durP2;ratioP2
34353;SDS011;20618;0.000;0.000;2023-12-04T00:02:05;3.97;;;2.70;;
34353;SDS011;20618;0.000;0.000;2023-12-04T00:04:31;4.57;;;2.85;;
34353;SDS011;20618;0.000;0.000;2023-12-04T00:06:57;3.53;;;2.70;;
34353;SDS011;20618;0.000;0.000;2023-12-04T00:09:24;4.63;;;3.05;;
34353;SDS011;20618;0.000;0.000;2023-12-04T00:11:50;3.70;;;2.60;;
34353;SDS011;20618;0.000;0.000;2023-12-04T00:14:17;3.80;;;2.90;;
34353;SDS011;20618;0.000;0.000;2023-12-04T00:16:43;4.38;;;2.97;;
34353;SDS011;20618;0.000;0.000;2023-12-04T00:19:09;3.40;;;2.88;;
34353;SDS011;20618;0.000;0.000;2023-12-04T00:21:35;3.47;;;2.78;;
34353;SDS011;20618;0.000;0.000;2023-12-04T00:24:02;3.50;;;2.72;;
34353;SDS011;20618;0.000;0.000;2023-12-04T00:26:28;4.00;;;3.03;;
34353;SDS011;20618;0.000;0.000;2023-12-04T00:28:54;3.50;;;2.60;;
34353;SDS011;20618;0.000;0.000;2023-12-04T00:31:20;3.35;;;2.45;;
34353;SDS011;20618;0.000;0.000;2023-12-04T00:33:46;4.90;;;2.92;;
34353;SDS011;20618;0.000;0.000;2023-12-04T00:36:13;3.63;;;2.50;;
34353;SDS011;20618;0.000;0.000;2023-12-04T00:38:39;3.63;;;2.65;;
34353;SDS011;20618;0.000;0.000;2023-12-04T00:41:05;5.05;;;2.60;;
34353;SDS011;20618;0.000;0.000;2023-12-04T00:43:32;3.80;;;2.80;;
34353;SDS011;20618;0.000;0.000;2023-12-04T00:45:58;4.20;;;2.92;;
34353;SDS011;20618;0.000;0.000;2023-12-04T00:48:24;3.40;;;2.67;;
34353;SDS011;20618;0.000;0.000;2023-12-04T00:50:51;4.00;;;2.95;;
34353;SDS011;20618;0.000;0.000;2023-12-04T00:53:17;3.50;;;2.85;;
34353;SDS011;20618;0.000;0.000;2023-12-04T00:55:43;4.28;;;2.50;;
34353;SDS011;20618;0.000;0.000;2023-12-04T00:58:09;3.38;;;2.72;;
34353;SDS011;20618;0.000;0.000;2023-12-04T01:00:35;3.90;;;2.90;;
34353;SDS011;20618;0.000;0.000;2023-12-04T01:03:01;4.28;;;2.45;;
34353;SDS011;20618;0.000;0.000;2023-12-04T01:05:28;3.40;;;2.42;;
34353;SDS011;20618;0.000;0.000;2023-12-04T01:07:54;4.47;;;3.03;;
34353;SDS011;20618;0.000;0.000;2023-12-04T01:10:20;3.17;;;2.58;;
34353;SDS011;20618;0.000;0.000;2023-12-04T01:12:46;3.17;;;2.38;;
34353;SDS011;20618;0.000;0.000;2023-12-04T01:15:13;3.58;;;2.70;;
34353;SDS011;20618;0.000;0.000;2023-12-04T01:17:39;3.83;;;2.47;;
34353;SDS011;20618;0.000;0.000;2023-12-04T01:20:05;3.85;;;2.55;;
34353;SDS011;20618;0.000;0.000;2023-12-04T01:22:31;3.65;;;2.80;;
34353;SDS011;20618;0.000;0.000;2023-12-04T01:24:58;3.30;;;2.60;;
34353;SDS011;20618;0.000;0.000;2023-12-04T01:27:24;3.03;;;2.50;;
34353;SDS011;20618;0.000;0.000;2023-12-04T01:29:50;3.65;;;2.60;;
34353;SDS011;20618;0.000;0.000;2023-12-04T01:32:16;3.78;;;2.90;;
34353;SDS011;20618;0.000;0.000;2023-12-04T01:34:42;4.25;;;2.85;;
34353;SDS011;20618;0.000;0.000;2023-12-04T01:37:08;3.42;;;2.45;;
34353;SDS011;20618;0.000;0.000;2023-12-04T01:39:35;3.25;;;2.58;;
34353;SDS011;20618;0.000;0.000;2023-12-04T01:42:01;4.20;;;2.30;;
34353;SDS011;20618;0.000;0.000;2023-12-04T01:44:27;3.30;;;2.50;;
34353;SDS011;20618;0.000;0.000;2023-12-04T01:46:54;3.78;;;2.33;;
34353;SDS011;20618;0.000;0.000;2023-12-04T01:49:21;3.35;;;2.45;;
34353;SDS011;20618;0.000;0.000;2023-12-04T01:51:47;3.30;;;2.30;;
34353;SDS011;20618;0.000;0.000;2023-12-04T01:54:13;3.70;;;2.70;;
34353;SDS011;20618;0.000;0.000;2023-12-04T01:56:40;3.58;;;2.95;;
34353;SDS011;20618;0.000;0.000;2023-12-04T01:59:06;3.72;;;2.63;;
34353;SDS011;20618;0.000;0.000;2023-12-04T02:01:32;3.75;;;2.65;;
34353;SDS011;20618;0.000;0.000;2023-12-04T02:03:59;3.63;;;2.65;;
34353;SDS011;20618;0.000;0.000;2023-12-04T02:06:26;5.18;;;2.75;;
34353;SDS011;20618;0.000;0.000;2023-12-04T02:08:52;3.40;;;2.60;;
34353;SDS011;20618;0.000;0.000;2023-12-04T02:11:19;3.80;;;2.58;;
34353;SDS011;20618;0.000;0.000;2023-12-04T02:13:45;4.22;;;2.75;;
34353;SDS011;20618;0.000;0.000;2023-12-04T02:16:11;3.33;;;2.83;;
34353;SDS011;20618;0.000;0.000;2023-12-04T02:18:38;4.18;;;2.80;;
34353;SDS011;20618;0.000;0.000;2023-12-04T02:21:04;3.33;;;2.42;;
34353;SDS011;20618;0.000;0.000;2023-12-04T02:23:31;4.07;;;2.72;;
34353;SDS011;20618;0.000;0.000;2023-12-04T02:26:05;3.40;;;2.83;;
34353;SDS011;20618;0.000;0.000;2023-12-04T02:28:35;3.63;;;3.00;;
34353;SDS011;20618;0.000;0.000;2023-12-04T02:31:03;3.35;;;2.55;;
34353;SDS011;20618;0.000;0.000;2023-12-04T02:33:30;3.40;;;2.60;;
34353;SDS011;20618;0.000;0.000;2023-12-04T02:35:57;3.55;;;2.80;;
34353;SDS011;20618;0.000;0.000;2023-12-04T02:38:24;4.50;;;2.67;;
34353;SDS011;20618;0.000;0.000;2023-12-04T02:40:50;3.70;;;2.95;;
34353;SDS011;20618;0.000;0.000;2023-12-04T02:43:17;3.90;;;2.78;;
34353;SDS011;20618;0.000;0.000;2023-12-04T02:45:43;4.55;;;2.90;;
34353;SDS011;20618;0.000;0.000;2023-12-04T02:48:09;3.42;;;2.35;;
34353;SDS011;20618;0.000;0.000;2023-12-04T02:50:35;3.42;;;2.50;;
34353;SDS011;20618;0.000;0.000;2023-12-04T02:53:01;3.22;;;2.70;;
34353;SDS011;20618;0.000;0.000;2023-12-04T02:55:28;4.35;;;2.55;;
34353;SDS011;20618;0.000;0.000;2023-12-04T02:57:54;2.90;;;2.25;;
34353;SDS011;20618;0.000;0.000;2023-12-04T03:00:20;3.85;;;2.90;;
34353;SDS011;20618;0.000;0.000;2023-12-04T03:02:46;2.72;;;2.42;;
34353;SDS011;20618;0.000;0.000;2023-12-04T03:05:12;3.60;;;2.53;;
34353;SDS011;20618;0.000;0.000;2023-12-04T03:07:39;3.60;;;2.65;;
34353;SDS011;20618;0.000;0.000;2023-12-04T03:10:05;3.35;;;2.60;;
34353;SDS011;20618;0.000;0.000;2023-12-04T03:12:31;4.00;;;3.00;;
34353;SDS011;20618;0.000;0.000;2023-12-04T03:14:57;3.55;;;2.65;;
34353;SDS011;20618;0.000;0.000;2023-12-04T03:17:24;3.83;;;2.50;;
34353;SDS011;20618;0.000;0.000;2023-12-04T03:19:50;3.88;;;2.58;;
34353;SDS011;20618;0.000;0.000;2023-12-04T03:22:17;3.13;;;2.42;;
34353;SDS011;20618;0.000;0.000;2023-12-04T03:24:43;3.53;;;2.70;;
34353;SDS011;20618;0.000;0.000;2023-12-04T03:27:10;3.40;;;2.40;;
34353;SDS011;20618;0.000;0.000;2023-12-04T03:29:36;4.05;;;2.80;;
34353;SDS011;20618;0.000;0.000;2023-12-04T03:32:03;3.90;;;2.70;;
34353;SDS011;20618;0.000;0.000;2023-12-04T03:34:29;3.70;;;2.47;;
34353;SDS011;20618;0.000;0.000;2023-12-04T03:36:55;3.72;;;2.78;;
34353;SDS011;20618;0.000;0.000;2023-12-04T03:39:21;4.05;;;2.92;;
34353;SDS011;20618;0.000;0.000;2023-12-04T03:41:47;3.03;;;2.33;;
34353;SDS011;20618;0.000;0.000;2023-12-04T03:44:13;3.25;;;2.60;;
34353;SDS011;20618;0.000;0.000;2023-12-04T03:46:40;3.78;;;2.70;;
34353;SDS011;20618;0.000;0.000;2023-12-04T03:49:06;3.55;;;2.58;;
34353;SDS011;20618;0.000;0.000;2023-12-04T03:51:32;4.07;;;2.30;;
34353;SDS011;20618;0.000;0.000;2023-12-04T03:53:58;3.17;;;2.45;;
34353;SDS011;20618;0.000;0.000;2023-12-04T03:56:24;3.53;;;2.70;;
34353;SDS011;20618;0.000;0.000;2023-12-04T03:58:50;4.38;;;3.15;;
34353;SDS011;20618;0.000;0.000;2023-12-04T04:01:16;3.47;;;2.65;;
34353;SDS011;20618;0.000;0.000;2023-12-04T04:03:43;3.08;;;2.47;;
34353;SDS011;20618;0.000;0.000;2023-12-04T04:06:11;4.50;;;2.88;;
34353;SDS011;20618;0.000;0.000;2023-12-04T04:08:37;3.50;;;2.50;;
34353;SDS011;20618;0.000;0.000;2023-12-04T04:11:03;3.05;;;2.33;;
34353;SDS011;20618;0.000;0.000;2023-12-04T04:13:29;4.05;;;2.80;;
34353;SDS011;20618;0.000;0.000;2023-12-04T04:15:55;3.33;;;2.55;;
34353;SDS011;20618;0.000;0.000;2023-12-04T04:18:21;3.90;;;2.70;;
34353;SDS011;20618;0.000;0.000;2023-12-04T04:20:48;3.30;;;2.33;;
34353;SDS011;20618;0.000;0.000;2023-12-04T04:23:14;3.47;;;2.17;;
34353;SDS011;20618;0.000;0.000;2023-12-04T04:25:40;2.88;;;2.28;;
34353;SDS011;20618;0.000;0.000;2023-12-04T04:28:06;3.70;;;2.75;;
34353;SDS011;20618;0.000;0.000;2023-12-04T04:30:32;3.85;;;2.50;;
34353;SDS011;20618;0.000;0.000;2023-12-04T04:32:59;3.20;;;2.35;;
34353;SDS011;20618;0.000;0.000;2023-12-04T04:35:25;3.78;;;2.80;;
34353;SDS011;20618;0.000;0.000;2023-12-04T04:37:51;3.70;;;2.85;;
34353;SDS011;20618;0.000;0.000;2023-12-04T04:40:17;3.72;;;2.72;;
34353;SDS011;20618;0.000;0.000;2023-12-04T04:42:43;3.40;;;2.70;;
34353;SDS011;20618;0.000;0.000;2023-12-04T04:45:09;3.58;;;2.70;;
34353;SDS011;20618;0.000;0.000;2023-12-04T04:47:36;3.88;;;2.50;;
34353;SDS011;20618;0.000;0.000;2023-12-04T04:50:02;3.33;;;2.60;;
34353;SDS011;20618;0.000;0.000;2023-12-04T04:52:28;3.88;;;2.83;;
34353;SDS011;20618;0.000;0.000;2023-12-04T04:54:54;3.58;;;2.70;;
34353;SDS011;20618;0.000;0.000;2023-12-04T04:57:20;4.07;;;2.67;;
34353;SDS011;20618;0.000;0.000;2023-12-04T04:59:47;2.80;;;2.28;;
34353;SDS011;20618;0.000;0.000;2023-12-04T05:02:13;3.47;;;2.60;;
34353;SDS011;20618;0.000;0.000;2023-12-04T05:04:39;3.35;;;2.50;;
34353;SDS011;20618;0.000;0.000;2023-12-04T05:07:05;3.38;;;2.65;;
34353;SDS011;20618;0.000;0.000;2023-12-04T05:09:31;3.35;;;2.47;;
34353;SDS011;20618;0.000;0.000;2023-12-04T05:11:57;4.47;;;2.50;;
34353;SDS011;20618;0.000;0.000;2023-12-04T05:14:24;3.70;;;2.70;;
34353;SDS011;20618;0.000;0.000;2023-12-04T05:16:52;3.70;;;2.67;;
34353;SDS011;20618;0.000;0.000;2023-12-04T05:19:18;3.30;;;2.60;;
34353;SDS011;20618;0.000;0.000;2023-12-04T05:21:44;3.20;;;2.53;;
34353;SDS011;20618;0.000;0.000;2023-12-04T05:24:10;3.10;;;2.33;;
34353;SDS011;20618;0.000;0.000;2023-12-04T05:26:36;3.70;;;2.78;;
34353;SDS011;20618;0.000;0.000;2023-12-04T05:29:02;3.67;;;2.60;;
34353;SDS011;20618;0.000;0.000;2023-12-04T05:31:29;3.70;;;2.50;;
34353;SDS011;20618;0.000;0.000;2023-12-04T05:33:55;3.50;;;2.90;;
34353;SDS011;20618;0.000;0.000;2023-12-04T05:36:21;3.45;;;2.50;;
34353;SDS011;20618;0.000;0.000;2023-12-04T05:38:47;3.20;;;2.33;;
34353;SDS011;20618;0.000;0.000;2023-12-04T05:41:13;3.75;;;2.53;;
34353;SDS011;20618;0.000;0.000;2023-12-04T05:43:39;3.30;;;2.60;;
34353;SDS011;20618;0.000;0.000;2023-12-04T05:46:06;3.25;;;2.33;;
34353;SDS011;20618;0.000;0.000;2023-12-04T05:48:32;3.67;;;2.50;;
34353;SDS011;20618;0.000;0.000;2023-12-04T05:50:58;3.53;;;2.72;;
34353;SDS011;20618;0.000;0.000;2023-12-04T05:53:24;3.83;;;2.45;;
34353;SDS011;20618;0.000;0.000;2023-12-04T05:55:50;3.78;;;2.63;;
34353;SDS011;20618;0.000;0.000;2023-12-04T05:58:16;2.53;;;2.00;;
34353;SDS011;20618;0.000;0.000;2023-12-04T06:03:18;3.00;;;2.22;;
34353;SDS011;20618;0.000;0.000;2023-12-04T06:05:45;3.03;;;2.38;;
34353;SDS011;20618;0.000;0.000;2023-12-04T06:08:11;3.35;;;2.50;;
34353;SDS011;20618;0.000;0.000;2023-12-04T06:10:37;3.90;;;2.95;;
34353;SDS011;20618;0.000;0.000;2023-12-04T06:13:03;4.05;;;2.42;;
34353;SDS011;20618;0.000;0.000;2023-12-04T06:15:29;2.80;;;2.30;;
34353;SDS011;20618;0.000;0.000;2023-12-04T06:17:55;3.90;;;2.47;;
34353;SDS011;20618;0.000;0.000;2023-12-04T06:20:22;2.90;;;2.38;;
34353;SDS011;20618;0.000;0.000;2023-12-04T06:22:48;4.10;;;2.65;;
34353;SDS011;20618;0.000;0.000;2023-12-04T06:25:14;3.10;;;2.60;;
34353;SDS011;20618;0.000;0.000;2023-12-04T06:27:41;3.63;;;2.40;;
34353;SDS011;20618;0.000;0.000;2023-12-04T06:30:07;3.42;;;2.70;;
34353;SDS011;20618;0.000;0.000;2023-12-04T06:32:34;3.38;;;2.60;;
34353;SDS011;20618;0.000;0.000;2023-12-04T06:35:00;3.05;;;2.50;;
34353;SDS011;20618;0.000;0.000;2023-12-04T06:37:26;3.60;;;2.47;;
34353;SDS011;20618;0.000;0.000;2023-12-04T06:39:52;3.40;;;2.60;;
34353;SDS011;20618;0.000;0.000;2023-12-04T06:42:19;3.13;;;2.60;;
34353;SDS011;20618;0.000;0.000;2023-12-04T06:44:45;3.28;;;2.63;;
34353;SDS011;20618;0.000;0.000;2023-12-04T06:47:12;2.75;;;2.17;;
34353;SDS011;20618;0.000;0.000;2023-12-04T06:49:38;3.20;;;2.50;;
34353;SDS011;20618;0.000;0.000;2023-12-04T06:52:04;3.35;;;2.55;;
34353;SDS011;20618;0.000;0.000;2023-12-04T06:54:31;3.25;;;2.45;;
34353;SDS011;20618;0.000;0.000;2023-12-04T06:56:57;3.60;;;2.38;;
34353;SDS011;20618;0.000;0.000;2023-12-04T06:59:23;3.35;;;2.83;;
34353;SDS011;20618;0.000;0.000;2023-12-04T07:01:49;3.53;;;2.72;;
34353;SDS011;20618;0.000;0.000;2023-12-04T07:04:15;3.13;;;2.60;;
34353;SDS011;20618;0.000;0.000;2023-12-04T07:06:46;3.83;;;2.53;;
34353;SDS011;20618;0.000;0.000;2023-12-04T07:09:13;7.82;;;2.90;;
34353;SDS011;20618;0.000;0.000;2023-12-04T07:11:39;3.97;;;2.58;;
34353;SDS011;20618;0.000;0.000;2023-12-04T07:14:05;3.33;;;2.40;;
34353;SDS011;20618;0.000;0.000;2023-12-04T07:16:38;3.17;;;2.75;;
34353;SDS011;20618;0.000;0.000;2023-12-04T07:19:05;3.15;;;2.25;;
34353;SDS011;20618;0.000;0.000;2023-12-04T07:21:31;2.97;;;2.50;;
34353;SDS011;20618;0.000;0.000;2023-12-04T07:23:57;2.80;;;2.40;;
34353;SDS011;20618;0.000;0.000;2023-12-04T07:26:23;3.58;;;2.35;;
34353;SDS011;20618;0.000;0.000;2023-12-04T07:28:49;3.00;;;2.30;;
34353;SDS011;20618;0.000;0.000;2023-12-04T07:31:15;6.57;;;2.67;;
34353;SDS011;20618;0.000;0.000;2023-12-04T07:33:42;3.55;;;2.55;;
34353;SDS011;20618;0.000;0.000;2023-12-04T07:36:09;5.70;;;2.50;;
34353;SDS011;20618;0.000;0.000;2023-12-04T07:38:35;7.68;;;2.65;;
34353;SDS011;20618;0.000;0.000;2023-12-04T07:41:01;3.33;;;2.25;;
34353;SDS011;20618;0.000;0.000;2023-12-04T07:43:27;13.30;;;3.00;;
34353;SDS011;20618;0.000;0.000;2023-12-04T07:45:55;3.75;;;2.53;;
34353;SDS011;20618;0.000;0.000;2023-12-04T07:48:22;6.85;;;2.97;;
34353;SDS011;20618;0.000;0.000;2023-12-04T07:50:49;2.95;;;2.35;;
34353;SDS011;20618;0.000;0.000;2023-12-04T07:53:15;5.72;;;2.40;;
34353;SDS011;20618;0.000;0.000;2023-12-04T07:55:41;4.30;;;2.63;;
34353;SDS011;20618;0.000;0.000;2023-12-04T07:58:08;4.57;;;3.03;;
34353;SDS011;20618;0.000;0.000;2023-12-04T08:00:34;7.57;;;2.78;;
34353;SDS011;20618;0.000;0.000;2023-12-04T08:03:01;6.65;;;2.50;;
34353;SDS011;20618;0.000;0.000;2023-12-04T08:05:27;4.43;;;2.67;;
34353;SDS011;20618;0.000;0.000;2023-12-04T08:07:54;6.15;;;2.38;;
34353;SDS011;20618;0.000;0.000;2023-12-04T08:10:21;4.75;;;2.70;;
34353;SDS011;20618;0.000;0.000;2023-12-04T08:12:48;5.47;;;2.40;;
34353;SDS011;20618;0.000;0.000;2023-12-04T08:15:14;4.88;;;2.70;;
34353;SDS011;20618;0.000;0.000;2023-12-04T08:17:40;6.30;;;2.72;;
34353;SDS011;20618;0.000;0.000;2023-12-04T08:20:07;7.38;;;2.60;;
34353;SDS011;20618;0.000;0.000;2023-12-04T08:22:38;12.27;;;2.90;;
34353;SDS011;20618;0.000;0.000;2023-12-04T08:25:05;6.88;;;2.92;;
34353;SDS011;20618;0.000;0.000;2023-12-04T08:27:34;6.03;;;2.50;;
34353;SDS011;20618;0.000;0.000;2023-12-04T08:30:00;16.73;;;3.90;;
34353;SDS011;20618;0.000;0.000;2023-12-04T08:32:28;22.75;;;3.80;;
34353;SDS011;20618;0.000;0.000;2023-12-04T08:34:54;10.35;;;3.05;;
34353;SDS011;20618;0.000;0.000;2023-12-04T08:37:20;25.13;;;4.15;;
34353;SDS011;20618;0.000;0.000;2023-12-04T08:39:46;14.20;;;2.80;;
34353;SDS011;20618;0.000;0.000;2023-12-04T08:42:13;10.70;;;3.15;;
34353;SDS011;20618;0.000;0.000;2023-12-04T08:44:39;11.40;;;2.95;;
34353;SDS011;20618;0.000;0.000;2023-12-04T08:47:05;9.85;;;3.17;;
34353;SDS011;20618;0.000;0.000;2023-12-04T08:49:31;17.58;;;3.90;;
34353;SDS011;20618;0.000;0.000;2023-12-04T08:51:59;21.90;;;4.00;;
34353;SDS011;20618;0.000;0.000;2023-12-04T08:54:25;16.25;;;3.47;;
34353;SDS011;20618;0.000;0.000;2023-12-04T08:56:51;18.77;;;3.90;;
34353;SDS011;20618;0.000;0.000;2023-12-04T08:59:19;14.23;;;3.40;;
34353;SDS011;20618;0.000;0.000;2023-12-04T09:01:46;12.27;;;3.28;;
34353;SDS011;20618;0.000;0.000;2023-12-04T09:04:12;12.35;;;3.53;;
34353;SDS011;20618;0.000;0.000;2023-12-04T09:06:38;12.38;;;3.17;;
34353;SDS011;20618;0.000;0.000;2023-12-04T09:09:04;19.08;;;4.95;;
34353;SDS011;20618;0.000;0.000;2023-12-04T09:11:30;22.83;;;4.90;;
34353;SDS011;20618;0.000;0.000;2023-12-04T09:13:56;23.42;;;4.53;;
34353;SDS011;20618;0.000;0.000;2023-12-04T09:16:23;15.15;;;3.92;;
34353;SDS011;20618;0.000;0.000;2023-12-04T09:18:49;17.17;;;4.28;;
34353;SDS011;20618;0.000;0.000;2023-12-04T09:21:15;17.40;;;4.38;;
34353;SDS011;20618;0.000;0.000;2023-12-04T09:23:41;17.77;;;4.53;;
34353;SDS011;20618;0.000;0.000;2023-12-04T09:26:08;17.85;;;4.07;;
34353;SDS011;20618;0.000;0.000;2023-12-04T09:28:35;18.98;;;3.90;;
34353;SDS011;20618;0.000;0.000;2023-12-04T09:31:01;16.85;;;3.85;;
34353;SDS011;20618;0.000;0.000;2023-12-04T09:33:28;15.68;;;4.03;;
34353;SDS011;20618;0.000;0.000;2023-12-04T09:35:54;17.70;;;4.43;;
34353;SDS011;20618;0.000;0.000;2023-12-04T09:38:20;18.85;;;3.88;;
34353;SDS011;20618;0.000;0.000;2023-12-04T09:40:46;19.02;;;3.92;;
34353;SDS011;20618;0.000;0.000;2023-12-04T09:43:12;15.73;;;3.40;;
34353;SDS011;20618;0.000;0.000;2023-12-04T09:45:39;15.13;;;3.47;;
34353;SDS011;20618;0.000;0.000;2023-12-04T09:48:06;18.95;;;4.10;;
34353;SDS011;20618;0.000;0.000;2023-12-04T09:50:34;13.52;;;4.18;;
34353;SDS011;20618;0.000;0.000;2023-12-04T09:53:00;10.35;;;3.45;;
34353;SDS011;20618;0.000;0.000;2023-12-04T09:55:27;16.40;;;3.70;;
34353;SDS011;20618;0.000;0.000;2023-12-04T09:57:53;16.35;;;4.15;;
34353;SDS011;20618;0.000;0.000;2023-12-04T10:00:20;14.70;;;4.53;;
34353;SDS011;20618;0.000;0.000;2023-12-04T10:02:47;18.17;;;4.45;;
34353;SDS011;20618;0.000;0.000;2023-12-04T10:05:13;18.67;;;4.15;;
34353;SDS011;20618;0.000;0.000;2023-12-04T10:07:39;15.90;;;4.50;;
34353;SDS011;20618;0.000;0.000;2023-12-04T10:10:06;16.27;;;4.60;;
34353;SDS011;20618;0.000;0.000;2023-12-04T10:12:33;19.92;;;4.45;;
34353;SDS011;20618;0.000;0.000;2023-12-04T10:15:06;11.65;;;3.88;;
34353;SDS011;20618;0.000;0.000;2023-12-04T10:17:33;18.48;;;4.07;;
34353;SDS011;20618;0.000;0.000;2023-12-04T10:20:09;21.23;;;4.93;;
34353;SDS011;20618;0.000;0.000;2023-12-04T10:22:40;22.92;;;4.25;;
34353;SDS011;20618;0.000;0.000;2023-12-04T10:25:15;17.17;;;3.93;;
34353;SDS011;20618;0.000;0.000;2023-12-04T10:27:43;16.98;;;4.18;;
34353;SDS011;20618;0.000;0.000;2023-12-04T10:30:09;20.08;;;4.20;;
34353;SDS011;20618;0.000;0.000;2023-12-04T10:32:40;15.25;;;3.70;;
34353;SDS011;20618;0.000;0.000;2023-12-04T10:35:06;18.42;;;4.43;;
34353;SDS011;20618;0.000;0.000;2023-12-04T10:37:35;18.77;;;3.80;;
34353;SDS011;20618;0.000;0.000;2023-12-04T10:40:02;15.85;;;3.53;;
34353;SDS011;20618;0.000;0.000;2023-12-04T10:42:29;19.20;;;4.60;;
34353;SDS011;20618;0.000;0.000;2023-12-04T10:44:56;18.02;;;4.05;;
34353;SDS011;20618;0.000;0.000;2023-12-04T10:47:22;19.10;;;4.40;;
34353;SDS011;20618;0.000;0.000;2023-12-04T10:49:52;19.25;;;4.53;;
34353;SDS011;20618;0.000;0.000;2023-12-04T10:52:18;25.47;;;4.63;;
34353;SDS011;20618;0.000;0.000;2023-12-04T10:54:48;29.90;;;5.07;;
34353;SDS011;20618;0.000;0.000;2023-12-04T10:57:27;20.13;;;4.28;;
34353;SDS011;20618;0.000;0.000;2023-12-04T11:00:02;25.75;;;4.68;;
34353;SDS011;20618;0.000;0.000;2023-12-04T11:02:28;14.85;;;4.15;;
34353;SDS011;20618;0.000;0.000;2023-12-04T11:04:55;21.83;;;3.97;;
34353;SDS011;20618;0.000;0.000;2023-12-04T11:07:25;17.15;;;4.28;;
34353;SDS011;20618;0.000;0.000;2023-12-04T11:09:52;18.02;;;4.00;;
34353;SDS011;20618;0.000;0.000;2023-12-04T11:12:21;18.50;;;4.18;;
34353;SDS011;20618;0.000;0.000;2023-12-04T11:14:53;16.38;;;4.53;;
34353;SDS011;20618;0.000;0.000;2023-12-04T11:17:22;30.88;;;5.15;;
34353;SDS011;20618;0.000;0.000;2023-12-04T11:22:36;15.45;;;4.28;;
34353;SDS011;20618;0.000;0.000;2023-12-04T11:25:06;17.77;;;4.28;;
34353;SDS011;20618;0.000;0.000;2023-12-04T11:27:33;19.50;;;3.85;;
34353;SDS011;20618;0.000;0.000;2023-12-04T11:29:59;21.63;;;4.47;;
34353;SDS011;20618;0.000;0.000;2023-12-04T11:32:28;20.15;;;4.68;;
34353;SDS011;20618;0.000;0.000;2023-12-04T11:34:55;21.35;;;3.85;;
34353;SDS011;20618;0.000;0.000;2023-12-04T11:37:21;22.27;;;4.93;;
34353;SDS011;20618;0.000;0.000;2023-12-04T11:39:51;25.27;;;4.80;;
34353;SDS011;20618;0.000;0.000;2023-12-04T11:42:19;18.20;;;4.38;;
34353;SDS011;20618;0.000;0.000;2023-12-04T11:44:47;26.50;;;4.35;;
34353;SDS011;20618;0.000;0.000;2023-12-04T11:47:15;21.23;;;4.32;;
34353;SDS011;20618;0.000;0.000;2023-12-04T11:49:41;25.58;;;4.57;;
34353;SDS011;20618;0.000;0.000;2023-12-04T11:52:08;22.85;;;4.15;;
34353;SDS011;20618;0.000;0.000;2023-12-04T11:57:20;30.45;;;4.35;;
34353;SDS011;20618;0.000;0.000;2023-12-04T11:59:47;22.75;;;4.38;;
34353;SDS011;20618;0.000;0.000;2023-12-04T12:02:14;18.65;;;4.22;;
34353;SDS011;20618;0.000;0.000;2023-12-04T12:04:42;17.70;;;4.38;;
34353;SDS011;20618;0.000;0.000;2023-12-04T12:07:10;23.67;;;4.30;;
34353;SDS011;20618;0.000;0.000;2023-12-04T12:09:36;25.08;;;4.70;;
34353;SDS011;20618;0.000;0.000;2023-12-04T12:12:03;17.85;;;3.88;;
34353;SDS011;20618;0.000;0.000;2023-12-04T12:14:29;19.67;;;4.10;;
34353;SDS011;20618;0.000;0.000;2023-12-04T12:16:57;24.92;;;4.80;;
34353;SDS011;20618;0.000;0.000;2023-12-04T12:19:25;21.35;;;4.20;;
34353;SDS011;20618;0.000;0.000;2023-12-04T12:21:51;13.85;;;4.13;;
34353;SDS011;20618;0.000;0.000;2023-12-04T12:24:18;20.50;;;4.65;;
34353;SDS011;20618;0.000;0.000;2023-12-04T12:26:44;18.23;;;4.65;;
34353;SDS011;20618;0.000;0.000;2023-12-04T12:29:11;16.92;;;3.70;;
34353;SDS011;20618;0.000;0.000;2023-12-04T12:31:37;15.93;;;4.15;;
34353;SDS011;20618;0.000;0.000;2023-12-04T12:34:04;21.20;;;4.47;;
34353;SDS011;20618;0.000;0.000;2023-12-04T12:36:30;16.67;;;3.97;;
34353;SDS011;20618;0.000;0.000;2023-12-04T12:38:59;15.98;;;3.97;;
34353;SDS011;20618;0.000;0.000;2023-12-04T12:41:28;24.73;;;4.57;;
34353;SDS011;20618;0.000;0.000;2023-12-04T12:43:55;22.67;;;4.60;;
34353;SDS011;20618;0.000;0.000;2023-12-04T12:46:21;23.40;;;5.07;;
34353;SDS011;20618;0.000;0.000;2023-12-04T12:48:47;16.45;;;4.40;;
34353;SDS011;20618;0.000;0.000;2023-12-04T12:51:14;20.20;;;4.53;;
34353;SDS011;20618;0.000;0.000;2023-12-04T12:53:40;23.13;;;5.10;;
34353;SDS011;20618;0.000;0.000;2023-12-04T12:56:06;24.77;;;5.10;;
34353;SDS011;20618;0.000;0.000;2023-12-04T12:58:33;20.38;;;4.15;;
34353;SDS011;20618;0.000;0.000;2023-12-04T13:00:59;20.83;;;4.40;;
34353;SDS011;20618;0.000;0.000;2023-12-04T13:03:26;28.10;;;4.97;;
34353;SDS011;20618;0.000;0.000;2023-12-04T13:05:52;28.38;;;5.18;;
34353;SDS011;20618;0.000;0.000;2023-12-04T13:08:18;23.08;;;4.90;;
34353;SDS011;20618;0.000;0.000;2023-12-04T13:10:44;28.70;;;5.30;;
34353;SDS011;20618;0.000;0.000;2023-12-04T13:13:11;19.10;;;4.60;;
34353;SDS011;20618;0.000;0.000;2023-12-04T13:15:37;23.73;;;5.43;;
34353;SDS011;20618;0.000;0.000;2023-12-04T13:18:04;25.27;;;5.10;;
34353;SDS011;20618;0.000;0.000;2023-12-04T13:20:30;18.38;;;4.50;;
34353;SDS011;20618;0.000;0.000;2023-12-04T13:22:56;22.30;;;5.22;;
34353;SDS011;20618;0.000;0.000;2023-12-04T13:25:22;26.60;;;5.20;;
34353;SDS011;20618;0.000;0.000;2023-12-04T13:27:48;24.92;;;4.65;;
34353;SDS011;20618;0.000;0.000;2023-12-04T13:30:15;24.65;;;5.00;;
34353;SDS011;20618;0.000;0.000;2023-12-04T13:32:42;29.30;;;4.13;;
34353;SDS011;20618;0.000;0.000;2023-12-04T13:35:09;22.23;;;5.30;;
34353;SDS011;20618;0.000;0.000;2023-12-04T13:37:36;24.02;;;4.55;;
34353;SDS011;20618;0.000;0.000;2023-12-04T13:40:07;19.65;;;4.25;;
34353;SDS011;20618;0.000;0.000;2023-12-04T13:42:33;20.65;;;4.70;;
34353;SDS011;20618;0.000;0.000;2023-12-04T13:45:18;18.85;;;4.43;;
34353;SDS011;20618;0.000;0.000;2023-12-04T13:47:48;22.38;;;4.20;;
34353;SDS011;20618;0.000;0.000;2023-12-04T13:50:14;18.98;;;4.30;;
34353;SDS011;20618;0.000;0.000;2023-12-04T13:52:40;17.60;;;4.50;;
34353;SDS011;20618;0.000;0.000;2023-12-04T13:55:08;21.20;;;4.70;;
34353;SDS011;20618;0.000;0.000;2023-12-04T13:57:45;29.63;;;5.00;;
34353;SDS011;20618;0.000;0.000;2023-12-04T14:00:23;25.33;;;4.80;;
34353;SDS011;20618;0.000;0.000;2023-12-04T14:02:50;20.38;;;5.25;;
34353;SDS011;20618;0.000;0.000;2023-12-04T14:05:25;24.42;;;4.90;;
34353;SDS011;20618;0.000;0.000;2023-12-04T14:07:51;32.40;;;5.65;;
34353;SDS011;20618;0.000;0.000;2023-12-04T14:10:18;25.73;;;5.75;;
34353;SDS011;20618;0.000;0.000;2023-12-04T14:12:44;24.67;;;5.10;;
34353;SDS011;20618;0.000;0.000;2023-12-04T14:15:11;24.17;;;5.18;;
34353;SDS011;20618;0.000;0.000;2023-12-04T14:17:37;23.92;;;5.13;;
34353;SDS011;20618;0.000;0.000;2023-12-04T14:20:05;30.05;;;5.95;;
34353;SDS011;20618;0.000;0.000;2023-12-04T14:22:37;25.40;;;4.53;;
34353;SDS011;20618;0.000;0.000;2023-12-04T14:25:04;22.00;;;5.25;;
34353;SDS011;20618;0.000;0.000;2023-12-04T14:27:32;20.80;;;4.75;;
34353;SDS011;20618;0.000;0.000;2023-12-04T14:29:58;18.80;;;4.53;;
34353;SDS011;20618;0.000;0.000;2023-12-04T14:32:24;19.40;;;5.30;;
34353;SDS011;20618;0.000;0.000;2023-12-04T14:34:50;22.73;;;4.38;;
34353;SDS011;20618;0.000;0.000;2023-12-04T14:37:16;27.48;;;5.32;;
34353;SDS011;20618;0.000;0.000;2023-12-04T14:39:43;30.30;;;5.30;;
34353;SDS011;20618;0.000;0.000;2023-12-04T14:42:10;22.35;;;4.70;;
34353;SDS011;20618;0.000;0.000;2023-12-04T14:44:36;23.25;;;4.72;;
34353;SDS011;20618;0.000;0.000;2023-12-04T14:47:02;29.38;;;5.55;;
34353;SDS011;20618;0.000;0.000;2023-12-04T14:49:29;22.05;;;5.65;;
34353;SDS011;20618;0.000;0.000;2023-12-04T14:51:57;25.00;;;4.65;;
34353;SDS011;20618;0.000;0.000;2023-12-04T14:54:25;22.38;;;4.55;;
34353;SDS011;20618;0.000;0.000;2023-12-04T14:57:15;18.65;;;4.75;;
34353;SDS011;20618;0.000;0.000;2023-12-04T14:59:44;16.50;;;4.25;;
34353;SDS011;20618;0.000;0.000;2023-12-04T15:02:22;19.50;;;5.00;;